Time;durP1;ratioP1;P1;durP2;ratioP2;P2;SDS_P1;SDS_P2;PMS_P1;PMS_P2;Temp;Humidity;BMP_temperature;BMP_pressure;BME280_temperature;BME280_humidity;BME280_pressure;Samples;Min_cycle;Max_cycle;Signal;HPM_P1;HPM_P2
2021/12/24 00:01:08;;;;;;;1.05;1.05;;;-7.40;99.90;;;;;;5033475;28;20036;-64
2021/12/24 00:03:34;;;;;;;0.98;0.98;;;-7.40;99.90;;;;;;5033460;28;20022;-64
2021/12/24 00:06:00;;;;;;;3.70;1.55;;;-7.40;99.90;;;;;;5033485;28;20022;-64
2021/12/24 00:08:26;;;;;;;1.00;1.00;;;-7.40;99.90;;;;;;5033055;28;20492;-65
2021/12/24 00:10:59;;;;;;;5.07;1.10;;;-7.30;99.90;;;;;;5033329;28;20029;-64
2021/12/24 00:13:27;;;;;;;1.15;1.08;;;-7.30;99.90;;;;;;5033186;28;20021;-65
2021/12/24 00:36:37;;;;;;;5.07;1.20;;;-7.20;99.90;;;;;;5033261;28;20116;-63
2021/12/24 00:39:03;;;;;;;1.20;1.10;;;-7.20;99.90;;;;;;5033064;28;20104;-63
2021/12/24 00:41:29;;;;;;;1.13;1.13;;;-7.20;99.90;;;;;;5032625;28;20036;-63
2021/12/24 00:43:55;;;;;;;3.22;1.10;;;-7.20;99.90;;;;;;5032731;28;20021;-63
2021/12/24 00:46:20;;;;;;;2.50;1.17;;;-7.10;99.90;;;;;;5031327;28;20025;-63
2021/12/24 00:48:48;;;;;;;1.73;1.17;;;-7.10;99.90;;;;;;5032652;28;20030;-63
2021/12/24 00:51:31;;;;;;;1.75;1.00;;;-7.10;99.90;;;;;;5032480;28;20036;-63
2021/12/24 00:56:41;;;;;;;1.30;1.20;;;-7.00;99.90;;;;;;4990919;28;1212986;-63
2021/12/24 00:59:07;;;;;;;1.10;1.05;;;-7.00;99.90;;;;;;5033518;28;20104;-63
2021/12/24 01:01:33;;;;;;;1.15;0.95;;;-6.90;99.90;;;;;;5033423;28;20618;-63
2021/12/24 01:03:58;;;;;;;1.25;1.10;;;-6.90;99.90;;;;;;5033548;28;20108;-63
2021/12/24 01:06:24;;;;;;;1.00;1.00;;;-6.90;99.90;;;;;;5033392;28;20079;-64
2021/12/24 01:08:50;;;;;;;0.90;0.90;;;-6.80;99.90;;;;;;5033424;28;20043;-63
2021/12/24 01:11:16;;;;;;;1.02;1.02;;;-6.80;99.90;;;;;;5032713;28;20045;-63
2021/12/24 01:13:42;;;;;;;1.00;1.00;;;-6.70;99.90;;;;;;5033260;28;20029;-64
2021/12/24 01:16:20;;;;;;;2.97;1.25;;;-6.70;99.90;;;;;;5033229;28;20036;-63
2021/12/24 01:19:08;;;;;;;2.25;1.20;;;-6.70;99.90;;;;;;5033152;28;20412;-64
2021/12/24 01:22:05;;;;;;;1.48;1.00;;;-6.70;99.90;;;;;;5032978;28;20033;-64
2021/12/24 01:24:36;;;;;;;2.63;1.00;;;-6.60;99.90;;;;;;5032594;28;20111;-64
2021/12/24 01:27:15;;;;;;;1.48;0.90;;;-6.60;99.90;;;;;;5033078;28;20029;-63
2021/12/24 01:42:47;;;;;;;1.38;0.90;;;-6.30;99.90;;;;;;5032675;28;20038;-64
2021/12/24 01:45:27;;;;;;;2.05;1.10;;;-6.20;99.90;;;;;;5032759;28;20370;-64
2021/12/24 01:47:59;;;;;;;1.42;1.20;;;-6.10;99.90;;;;;;5032707;28;20014;-64
2021/12/24 01:50:28;;;;;;;1.80;1.10;;;-6.10;99.90;;;;;;5032565;28;20037;-64
2021/12/24 01:52:55;;;;;;;1.67;1.08;;;-6.00;99.90;;;;;;5032540;28;20032;-64
2021/12/24 01:55:23;;;;;;;1.00;1.00;;;-5.90;99.90;;;;;;5032424;28;20026;-64
2021/12/24 01:57:49;;;;;;;1.35;1.10;;;-5.90;99.90;;;;;;5032192;28;20064;-64
2021/12/24 02:00:21;;;;;;;4.43;1.10;;;-5.80;99.90;;;;;;5032746;28;20101;-63
2021/12/24 02:02:47;;;;;;;2.30;1.10;;;-5.70;99.90;;;;;;5032362;28;20043;-63
2021/12/24 02:05:13;;;;;;;1.40;1.20;;;-5.70;99.90;;;;;;5032678;28;20108;-65
2021/12/24 02:07:39;;;;;;;4.80;1.20;;;-5.60;99.90;;;;;;5032106;28;20104;-65
2021/12/24 02:10:09;;;;;;;1.10;1.10;;;-5.60;99.90;;;;;;5032585;28;20114;-65
2021/12/24 02:12:36;;;;;;;2.95;1.33;;;-5.50;99.90;;;;;;5032361;28;20045;-65
2021/12/24 02:15:11;;;;;;;5.15;1.30;;;-5.40;99.90;;;;;;5032162;28;20065;-65
2021/12/24 02:55:16;;;;;;;5.55;1.25;;;-4.50;99.90;;;;;;5032032;28;20032;-65
2021/12/24 02:57:43;;;;;;;1.73;1.30;;;-4.50;99.90;;;;;;5031486;28;20064;-65
2021/12/24 03:00:15;;;;;;;6.78;1.30;;;-4.50;99.90;;;;;;5031558;28;20029;-65
2021/12/24 03:02:44;;;;;;;3.75;1.45;;;-4.50;99.90;;;;;;5031789;28;20462;-65
2021/12/24 03:05:11;;;;;;;1.38;0.95;;;-4.50;99.90;;;;;;5031852;28;20057;-64
2021/12/24 03:07:37;;;;;;;2.70;1.30;;;-4.40;99.90;;;;;;5031654;28;20102;-65
2021/12/24 03:10:06;;;;;;;5.38;1.20;;;-4.40;99.90;;;;;;5031768;28;20117;-65
2021/12/24 03:12:33;;;;;;;4.78;1.20;;;-4.30;99.90;;;;;;5031547;28;20500;-65
2021/12/24 03:14:59;;;;;;;2.90;1.13;;;-4.30;99.90;;;;;;5031596;28;20408;-65
2021/12/24 03:17:26;;;;;;;3.78;1.20;;;-4.30;99.90;;;;;;5031721;28;20025;-65
2021/12/24 03:19:53;;;;;;;4.78;1.30;;;-4.30;99.90;;;;;;5031539;28;20124;-65
2021/12/24 03:24:51;;;;;;;3.20;1.38;;;-4.20;99.90;;;;;;5031493;28;20052;-65
2021/12/24 03:27:17;;;;;;;3.05;1.02;;;-4.20;99.90;;;;;;5031411;28;20057;-65
2021/12/24 03:29:42;;;;;;;3.63;1.33;;;-4.20;99.90;;;;;;5031458;28;20028;-65
2021/12/24 03:32:09;;;;;;;6.88;1.20;;;-4.10;99.90;;;;;;5031441;28;20034;-65
2021/12/24 03:34:35;;;;;;;3.72;1.27;;;-4.10;99.90;;;;;;5032180;28;20025;-65
2021/12/24 03:37:03;;;;;;;5.25;1.67;;;-4.10;99.90;;;;;;5035361;28;20026;-65
2021/12/24 03:39:29;;;;;;;2.17;1.13;;;-4.10;99.90;;;;;;5034983;28;20025;-65
2021/12/24 03:41:56;;;;;;;6.63;1.40;;;-4.00;99.90;;;;;;5035334;28;20048;-65
2021/12/24 03:44:30;;;;;;;4.50;1.25;;;-4.00;99.90;;;;;;5034767;28;20030;-65
2021/12/24 03:50:07;;;;;;;3.20;1.20;;;-4.00;99.90;;;;;;5034828;28;20022;-65
2021/12/24 03:55:00;;;;;;;3.80;1.13;;;-3.90;99.90;;;;;;5034850;28;20018;-65
2021/12/24 03:57:30;;;;;;;3.70;1.30;;;-3.90;99.90;;;;;;5034449;28;20041;-64
2021/12/24 03:59:58;;;;;;;1.92;1.25;;;-3.90;99.90;;;;;;5035184;28;20603;-64
2021/12/24 04:02:24;;;;;;;4.75;1.30;;;-3.90;99.90;;;;;;5034630;28;20504;-64
2021/12/24 04:04:50;;;;;;;7.15;1.67;;;-3.90;99.90;;;;;;5034631;28;20021;-65
2021/12/24 04:07:17;;;;;;;2.25;1.08;;;-3.90;99.90;;;;;;5034400;28;20037;-65
2021/12/24 04:09:50;;;;;;;2.20;1.35;;;-3.90;99.90;;;;;;5034441;28;20026;-66
2021/12/24 04:12:16;;;;;;;0.90;0.90;;;-3.90;99.90;;;;;;5034215;28;20038;-65
2021/12/24 04:14:42;;;;;;;2.30;1.13;;;-3.90;99.90;;;;;;5034340;28;20511;-65
2021/12/24 04:17:08;;;;;;;3.78;1.25;;;-3.90;99.90;;;;;;5034260;28;20142;-66
2021/12/24 04:24:51;;;;;;;3.30;1.15;;;-3.90;99.90;;;;;;5034539;28;20030;-66
2021/12/24 04:25:08;;;;;;;2.63;1.40;;;-3.90;99.90;;;;;;5034401;28;20036;-65
2021/12/24 04:27:33;;;;;;;5.20;1.77;;;-3.90;99.90;;;;;;5034226;28;20022;-65
2021/12/24 04:30:12;;;;;;;2.72;1.20;;;-3.90;99.90;;;;;;5034025;28;20096;-65
2021/12/24 04:51:28;;;;;;;2.80;1.33;;;-3.80;99.90;;;;;;5033512;28;20099;-64
2021/12/24 05:02:24;;;;;;;5.03;1.30;;;-3.80;99.90;;;;;;5033422;28;20032;-64
2021/12/24 05:04:56;;;;;;;3.85;1.35;;;-3.80;99.90;;;;;;5033444;28;20378;-64
2021/12/24 05:09:50;;;;;;;1.10;1.00;;;-3.80;99.90;;;;;;5033601;28;20041;-65
2021/12/24 05:12:16;;;;;;;1.52;0.95;;;-3.80;99.90;;;;;;5033400;28;20033;-65
2021/12/24 05:14:42;;;;;;;4.40;1.50;;;-3.80;99.90;;;;;;5033460;28;20376;-65
2021/12/24 05:22:40;;;;;;;3.85;1.52;;;-3.80;99.90;;;;;;5030848;28;20504;-64
2021/12/24 05:25:06;;;;;;;2.85;1.50;;;-3.80;99.90;;;;;;5033374;28;20025;-64
2021/12/24 05:27:34;;;;;;;1.52;1.10;;;-3.80;99.90;;;;;;5032911;28;20115;-65
2021/12/24 05:29:59;;;;;;;1.45;1.08;;;-3.80;99.90;;;;;;5033016;28;20124;-64
2021/12/24 05:32:25;;;;;;;1.42;1.15;;;-3.80;99.90;;;;;;5033281;28;20095;-66
2021/12/24 05:34:51;;;;;;;3.20;1.13;;;-3.90;99.90;;;;;;5032988;28;20021;-64
2021/12/24 05:37:17;;;;;;;1.85;1.10;;;-3.90;99.90;;;;;;5033031;28;20032;-66
2021/12/24 05:39:43;;;;;;;0.93;0.93;;;-3.90;99.90;;;;;;5032831;28;20022;-65
2021/12/24 05:42:08;;;;;;;9.20;1.30;;;-3.90;99.90;;;;;;5033050;28;20481;-65
2021/12/24 05:44:34;;;;;;;2.15;1.27;;;-3.00;99.90;;;;;;5035277;28;20025;-65
2021/12/24 05:47:00;;;;;;;5.57;1.35;;;-3.30;99.90;;;;;;5049313;28;20057;-66
2021/12/24 05:49:26;;;;;;;2.55;1.52;;;-3.60;99.90;;;;;;5041421;28;20071;-64
2021/12/24 05:51:52;;;;;;;6.03;1.60;;;-3.70;99.90;;;;;;5042813;28;20037;-65
2021/12/24 05:54:17;;;;;;;6.43;1.55;;;-3.80;99.90;;;;;;5039429;28;20040;-64
2021/12/24 05:56:44;;;;;;;2.03;1.20;;;-3.90;99.90;;;;;;5040838;28;20103;-65
2021/12/24 05:59:10;;;;;;;3.72;1.80;;;-3.90;99.90;;;;;;5041214;28;20393;-64
2021/12/24 06:01:36;;;;;;;6.45;1.60;;;-3.90;99.90;;;;;;5046221;28;20032;-64
2021/12/24 06:04:03;;;;;;;3.38;1.70;;;-3.90;99.90;;;;;;5037588;28;20045;-63
2021/12/24 06:06:29;;;;;;;3.72;1.30;;;-4.00;99.90;;;;;;5038171;28;20047;-63
2021/12/24 06:08:55;;;;;;;5.63;1.35;;;-4.00;99.90;;;;;;5040349;28;20026;-63
2021/12/24 06:11:20;;;;;;;2.42;1.45;;;-4.10;99.90;;;;;;5040489;28;20493;-63
2021/12/24 06:13:51;;;;;;;4.03;1.65;;;-4.10;99.90;;;;;;5043925;28;20832;-63
2021/12/24 06:16:18;;;;;;;2.90;1.30;;;-4.10;99.90;;;;;;5042121;28;20025;-63
2021/12/24 06:18:44;;;;;;;1.60;1.13;;;-4.20;99.90;;;;;;5040945;28;20094;-63
2021/12/24 06:21:09;;;;;;;3.35;1.70;;;-4.20;99.90;;;;;;5040741;28;20065;-63
2021/12/24 06:23:37;;;;;;;4.93;1.60;;;-4.30;99.90;;;;;;5041556;28;20025;-63
2021/12/24 06:26:06;;;;;;;5.65;1.40;;;-4.20;99.90;;;;;;5042572;28;20021;-63
2021/12/24 06:28:32;;;;;;;1.08;0.98;;;-4.30;99.90;;;;;;5034357;28;20026;-64
2021/12/24 06:30:58;;;;;;;3.65;1.20;;;-4.30;99.90;;;;;;5041920;28;20028;-64
2021/12/24 06:33:24;;;;;;;4.95;1.42;;;-4.30;99.90;;;;;;5051785;28;20028;-64
2021/12/24 06:35:54;;;;;;;4.53;1.42;;;-4.30;99.90;;;;;;5052109;28;20040;-64
2021/12/24 06:38:20;;;;;;;2.05;1.30;;;-4.10;99.90;;;;;;5051744;28;20385;-64
2021/12/24 06:40:46;;;;;;;1.95;1.27;;;-4.10;99.90;;;;;;5051847;28;20028;-64
2021/12/24 06:43:12;;;;;;;4.65;1.30;;;-4.20;99.90;;;;;;5051746;28;20033;-64
2021/12/24 06:45:38;;;;;;;2.65;1.40;;;-4.20;99.90;;;;;;5051729;28;20025;-64
2021/12/24 06:48:05;;;;;;;1.60;1.25;;;-4.20;99.90;;;;;;5051761;28;20036;-64
2021/12/24 06:50:31;;;;;;;1.52;1.42;;;-4.20;99.90;;;;;;5051597;28;20023;-64
2021/12/24 06:52:57;;;;;;;2.15;1.20;;;-4.20;99.90;;;;;;5051745;28;20040;-63
2021/12/24 06:55:24;;;;;;;3.45;1.20;;;-4.20;99.90;;;;;;5051573;28;20029;-63
2021/12/24 06:57:50;;;;;;;5.13;1.30;;;-4.20;99.90;;;;;;5051729;28;20064;-65
2021/12/24 07:00:21;;;;;;;2.13;1.40;;;-4.10;99.90;;;;;;5051615;28;20056;-65
2021/12/24 07:02:48;;;;;;;2.85;1.20;;;-4.00;99.90;;;;;;5051835;28;20025;-66
2021/12/24 07:05:14;;;;;;;3.05;1.13;;;-4.10;99.90;;;;;;5050297;28;20025;-65
2021/12/24 07:07:40;;;;;;;1.48;1.38;;;-4.20;99.90;;;;;;5051969;28;20490;-64
2021/12/24 07:10:06;;;;;;;2.05;1.48;;;-4.20;99.90;;;;;;5053327;28;20104;-64
2021/12/24 07:12:32;;;;;;;1.48;1.17;;;-4.20;99.90;;;;;;5055340;28;20075;-64
2021/12/24 07:14:58;;;;;;;6.60;1.58;;;-4.20;99.90;;;;;;5055503;28;20103;-65
2021/12/24 07:17:24;;;;;;;6.75;1.13;;;-4.20;99.90;;;;;;5055321;28;20029;-63
2021/12/24 07:19:50;;;;;;;3.47;1.20;;;-4.30;99.90;;;;;;5055125;28;20028;-65
2021/12/24 07:22:18;;;;;;;1.88;1.08;;;-4.30;99.90;;;;;;5052214;28;20025;-65
2021/12/24 07:24:44;;;;;;;2.05;1.10;;;-4.40;99.90;;;;;;5052548;28;20094;-64
2021/12/24 07:27:10;;;;;;;2.22;0.95;;;-4.40;99.90;;;;;;5055236;28;20021;-65
2021/12/24 07:29:36;;;;;;;10.73;2.35;;;-4.30;99.90;;;;;;5055065;28;20021;-64
2021/12/24 07:32:03;;;;;;;2.10;1.25;;;-3.80;99.90;;;;;;5055370;28;20540;-64
2021/12/24 07:34:29;;;;;;;4.75;1.38;;;-3.40;99.90;;;;;;5054957;28;20021;-64
2021/12/24 07:36:56;;;;;;;5.80;1.48;;;-3.70;99.90;;;;;;5055127;28;20503;-64
2021/12/24 07:39:21;;;;;;;3.92;1.30;;;-3.90;99.90;;;;;;5055160;28;20029;-63
2021/12/24 07:41:48;;;;;;;3.70;1.30;;;-4.00;99.90;;;;;;5054948;28;20397;-65
2021/12/24 07:44:13;;;;;;;1.20;1.10;;;-4.10;99.90;;;;;;5054868;28;20028;-65
2021/12/24 07:46:46;;;;;;;2.10;1.13;;;-4.10;99.90;;;;;;5054842;28;20029;-64
2021/12/24 07:49:19;;;;;;;4.10;1.15;;;-4.20;99.90;;;;;;5055233;28;20060;-64
2021/12/24 07:54:33;;;;;;;1.45;0.80;;;-4.30;99.90;;;;;;5052467;28;20036;-64
2021/12/24 07:57:00;;;;;;;2.08;1.20;;;-4.20;99.90;;;;;;5054170;28;20592;-64
2021/12/24 07:59:27;;;;;;;1.52;1.23;;;-4.20;99.90;;;;;;5049184;28;20108;-64
2021/12/24 08:01:54;;;;;;;3.42;1.20;;;-4.30;99.90;;;;;;5054582;28;20484;-64
2021/12/24 08:04:20;;;;;;;0.98;0.98;;;-4.30;99.90;;;;;;5054267;28;20032;-64
2021/12/24 08:06:46;;;;;;;5.18;1.10;;;-4.30;99.90;;;;;;5054359;28;20671;-64
2021/12/24 08:09:12;;;;;;;2.25;1.02;;;-4.30;99.90;;;;;;5053097;28;20033;-65
2021/12/24 08:11:38;;;;;;;3.47;1.30;;;-4.30;99.90;;;;;;5054383;28;20146;-64
2021/12/24 08:14:08;;;;;;;2.55;1.15;;;-4.30;99.90;;;;;;5054057;28;20035;-64
2021/12/24 08:16:35;;;;;;;4.13;1.15;;;-4.30;99.90;;;;;;5053951;28;20032;-66
2021/12/24 08:19:02;;;;;;;5.63;1.50;;;-4.30;99.90;;;;;;5046084;28;20037;-66
2021/12/24 08:21:28;;;;;;;1.13;0.90;;;-4.30;99.90;;;;;;5054047;28;20127;-66
2021/12/24 08:23:54;;;;;;;2.70;1.30;;;-4.40;99.90;;;;;;5054091;28;20029;-65
2021/12/24 08:26:21;;;;;;;3.25;1.70;;;-4.40;99.90;;;;;;5054069;28;20048;-65
2021/12/24 08:28:48;;;;;;;4.20;1.48;;;-4.40;99.90;;;;;;5052979;28;20025;-66
2021/12/24 08:31:14;;;;;;;3.78;1.48;;;-4.40;99.90;;;;;;5053864;28;20531;-64
2021/12/24 08:33:40;;;;;;;2.40;1.30;;;-4.40;99.90;;;;;;5053975;28;20094;-65
2021/12/24 08:36:07;;;;;;;1.20;1.10;;;-4.40;99.90;;;;;;5053974;28;20025;-64
2021/12/24 08:38:34;;;;;;;2.28;1.02;;;-4.40;99.90;;;;;;5054027;28;20036;-64
2021/12/24 08:41:00;;;;;;;5.65;1.58;;;-4.40;99.90;;;;;;5054080;28;20384;-65
2021/12/24 08:43:26;;;;;;;0.95;0.93;;;-4.50;99.90;;;;;;5053769;28;20083;-64
2021/12/24 08:45:52;;;;;;;1.60;0.93;;;-4.40;99.90;;;;;;5053676;28;20029;-64
2021/12/24 08:48:18;;;;;;;0.77;0.77;;;-4.50;99.90;;;;;;5052451;28;20039;-64
2021/12/24 08:50:47;;;;;;;4.72;1.45;;;-4.50;99.90;;;;;;5053592;28;20232;-64
2021/12/24 08:53:13;;;;;;;4.07;1.30;;;-4.50;99.90;;;;;;5053601;28;20040;-64
2021/12/24 08:55:40;;;;;;;5.20;1.48;;;-4.60;99.90;;;;;;5053727;28;20017;-64
2021/12/24 08:58:06;;;;;;;1.13;1.10;;;-4.60;99.90;;;;;;5053529;28;20045;-64
2021/12/24 09:00:33;;;;;;;3.63;1.38;;;-4.60;99.90;;;;;;5048493;28;20033;-63
2021/12/24 09:03:01;;;;;;;1.85;1.05;;;-4.50;99.90;;;;;;5043220;28;20078;-62
2021/12/24 09:05:28;;;;;;;5.43;1.40;;;-4.40;99.90;;;;;;5033308;28;20040;-63
2021/12/24 09:07:54;;;;;;;2.78;1.42;;;-3.90;99.90;;;;;;5033434;28;20018;-64
2021/12/24 09:10:20;;;;;;;3.20;1.50;;;-3.30;99.90;;;;;;5033237;28;20030;-64
2021/12/24 09:12:46;;;;;;;1.90;1.25;;;-3.10;99.90;;;;;;5033289;28;20036;-64
2021/12/24 09:15:14;;;;;;;6.10;1.30;;;-3.60;99.90;;;;;;5041490;28;20126;-64
2021/12/24 09:17:46;;;;;;;1.13;0.90;;;-3.80;99.90;;;;;;5033060;28;20056;-64
2021/12/24 09:20:15;;;;;;;4.13;1.20;;;-4.10;99.90;;;;;;5041161;28;20028;-64
2021/12/24 09:22:41;;;;;;;3.45;1.30;;;-4.20;99.90;;;;;;5043445;28;20028;-64
2021/12/24 09:25:09;;;;;;;2.88;1.90;;;-4.30;99.90;;;;;;5041626;28;20024;-64
2021/12/24 09:27:34;;;;;;;1.92;1.23;;;-4.40;99.90;;;;;;5044390;28;20028;-64
2021/12/24 09:30:00;;;;;;;3.30;1.55;;;-4.40;99.90;;;;;;5041376;28;20025;-64
2021/12/24 09:32:29;;;;;;;2.38;1.40;;;-4.50;99.90;;;;;;5038438;28;20049;-64
2021/12/24 09:34:55;;;;;;;1.23;1.13;;;-4.50;99.90;;;;;;5032847;28;20013;-64
2021/12/24 09:37:21;;;;;;;2.08;1.30;;;-4.50;99.90;;;;;;5032977;28;20037;-64
2021/12/24 09:39:47;;;;;;;2.97;1.60;;;-4.50;99.90;;;;;;5032626;28;20032;-64
2021/12/24 09:42:13;;;;;;;5.15;1.50;;;-4.50;99.90;;;;;;5041103;28;20030;-64
2021/12/24 09:44:39;;;;;;;3.00;1.33;;;-4.60;99.90;;;;;;5032687;28;20407;-64
2021/12/24 09:47:06;;;;;;;2.03;1.60;;;-4.60;99.90;;;;;;5040718;28;20021;-64
2021/12/24 09:49:32;;;;;;;2.10;1.20;;;-4.50;99.90;;;;;;5052835;28;20033;-64
2021/12/24 09:52:00;;;;;;;0.98;0.98;;;-4.60;99.90;;;;;;5052588;28;20065;-64
2021/12/24 09:54:25;;;;;;;5.80;1.40;;;-4.60;99.90;;;;;;5052338;28;20021;-65
2021/12/24 09:56:53;;;;;;;2.15;1.10;;;-4.60;99.90;;;;;;5044607;28;20132;-64
2021/12/24 09:59:19;;;;;;;1.20;1.10;;;-4.60;99.90;;;;;;5053452;28;20031;-65
2021/12/24 10:02:01;;;;;;;1.35;1.17;;;-4.40;99.90;;;;;;5051124;28;20120;-65
2021/12/24 10:04:30;;;;;;;3.67;1.90;;;-3.40;99.90;;;;;;5052191;28;20013;-64
2021/12/24 10:07:03;;;;;;;3.33;1.38;;;-3.60;99.90;;;;;;5052260;28;20029;-64
2021/12/24 10:09:34;;;;;;;1.88;1.30;;;-3.90;99.90;;;;;;5051926;28;20021;-64
2021/12/24 10:12:04;;;;;;;2.45;1.70;;;-4.10;99.90;;;;;;5047718;28;20116;-64
2021/12/24 10:14:33;;;;;;;1.52;1.40;;;-4.30;99.90;;;;;;5045913;28;20078;-64
2021/12/24 10:17:00;;;;;;;2.63;1.10;;;-4.40;99.90;;;;;;5044590;28;20060;-64
2021/12/24 10:19:26;;;;;;;6.03;1.55;;;-4.50;99.90;;;;;;5040649;28;20014;-64
2021/12/24 10:22:03;;;;;;;2.45;1.40;;;-4.50;99.90;;;;;;5043688;28;20350;-64
2021/12/24 10:24:30;;;;;;;3.70;1.27;;;-4.60;99.90;;;;;;5052143;28;20025;-64
2021/12/24 10:26:59;;;;;;;0.90;0.85;;;-4.60;99.90;;;;;;5048655;28;20026;-63
2021/12/24 10:29:34;;;;;;;2.92;1.38;;;-4.60;99.90;;;;;;5035025;28;20053;-63
2021/12/24 10:32:08;;;;;;;5.03;1.50;;;-4.60;99.90;;;;;;5031983;28;20466;-63
2021/12/24 10:34:36;;;;;;;3.30;1.35;;;-4.60;99.90;;;;;;5031934;28;20068;-63
2021/12/24 10:37:13;;;;;;;3.25;1.30;;;-4.60;99.90;;;;;;5031948;28;20029;-63
2021/12/24 10:39:41;;;;;;;4.03;1.40;;;-4.70;99.90;;;;;;5031813;28;20024;-63
2021/12/24 10:42:13;;;;;;;1.20;1.10;;;-4.70;99.90;;;;;;5034105;28;20037;-64
2021/12/24 10:44:41;;;;;;;7.55;1.60;;;-4.70;99.90;;;;;;5039261;28;20074;-65
2021/12/24 10:47:25;;;;;;;2.88;1.20;;;-4.70;99.90;;;;;;5042408;28;20103;-64
2021/12/24 10:50:04;;;;;;;2.38;1.30;;;-4.70;99.90;;;;;;5055951;28;20051;-64
2021/12/24 10:55:23;;;;;;;4.50;1.60;;;-4.70;99.90;;;;;;5056183;28;20048;-64
2021/12/24 10:57:53;;;;;;;8.80;3.97;;;-4.70;99.90;;;;;;5051380;28;20049;-64
2021/12/24 11:00:42;;;;;;;2.72;1.55;;;-4.70;99.90;;;;;;5044574;28;20032;-64
2021/12/24 11:03:17;;;;;;;2.13;1.88;;;-4.80;99.90;;;;;;5044807;28;20106;-64
2021/12/24 11:05:46;;;;;;;3.25;1.38;;;-4.70;99.90;;;;;;5052286;28;20079;-66
2021/12/24 11:08:20;;;;;;;1.67;1.08;;;-4.60;99.90;;;;;;5038844;28;20082;-64
2021/12/24 11:10:50;;;;;;;5.00;2.30;;;-4.70;99.90;;;;;;5035804;28;20029;-64
2021/12/24 11:13:19;;;;;;;5.53;2.40;;;-4.70;99.90;;;;;;5035941;28;20044;-64
2021/12/24 11:15:50;;;;;;;2.47;1.40;;;-4.70;99.90;;;;;;5035480;28;20496;-64
2021/12/24 11:18:26;;;;;;;3.08;1.40;;;-4.70;99.90;;;;;;5035688;28;20068;-65
2021/12/24 11:20:58;;;;;;;2.85;1.75;;;-4.70;99.90;;;;;;5034317;28;20056;-64
2021/12/24 11:23:31;;;;;;;3.95;1.52;;;-4.80;99.90;;;;;;5035467;28;20028;-65
2021/12/24 11:26:00;;;;;;;3.53;1.73;;;-4.80;99.90;;;;;;5035427;28;20057;-65
2021/12/24 11:28:27;;;;;;;6.38;1.50;;;-4.80;99.90;;;;;;5035176;28;20037;-64
2021/12/24 11:31:06;;;;;;;3.17;1.75;;;-4.80;99.90;;;;;;5035408;28;20381;-65
2021/12/24 11:33:34;;;;;;;1.73;1.52;;;-4.80;99.90;;;;;;5034940;28;20116;-64
2021/12/24 11:36:03;;;;;;;2.78;1.38;;;-4.70;99.90;;;;;;5035015;28;20508;-64
2021/12/24 11:38:41;;;;;;;2.53;1.70;;;-4.70;99.90;;;;;;5034976;28;20057;-64
2021/12/24 11:41:13;;;;;;;0.95;0.95;;;-4.70;99.90;;;;;;5034993;28;20022;-65
2021/12/24 11:43:41;;;;;;;1.88;1.40;;;-4.70;99.90;;;;;;5034994;28;20026;-65
2021/12/24 11:46:10;;;;;;;3.53;1.67;;;-4.70;99.90;;;;;;5034920;28;20424;-65
2021/12/24 11:48:36;;;;;;;1.38;1.20;;;-4.70;99.90;;;;;;5034869;28;20082;-65
2021/12/24 11:51:14;;;;;;;2.13;1.15;;;-4.70;99.90;;;;;;5034813;28;20025;-64
2021/12/24 11:53:41;;;;;;;2.78;1.23;;;-4.70;99.90;;;;;;5034903;28;20052;-64
2021/12/24 11:56:09;;;;;;;3.35;1.60;;;-4.70;99.90;;;;;;5037452;28;20036;-65
2021/12/24 11:58:50;;;;;;;4.13;1.67;;;-4.70;99.90;;;;;;5054573;28;20112;-64
2021/12/24 12:01:17;;;;;;;4.18;2.28;;;-4.70;99.90;;;;;;5048322;28;20511;-65
2021/12/24 12:03:52;;;;;;;5.57;1.90;;;-4.70;99.90;;;;;;5034509;28;20509;-66
2021/12/24 12:06:24;;;;;;;6.72;2.40;;;-4.70;99.90;;;;;;5038935;28;20166;-66
2021/12/24 12:08:50;;;;;;;1.38;1.13;;;-4.80;99.90;;;;;;5039684;28;20031;-66
2021/12/24 12:11:26;;;;;;;2.53;1.67;;;-4.80;99.90;;;;;;5034380;28;20029;-65
2021/12/24 12:13:55;;;;;;;4.38;1.58;;;-4.80;99.90;;;;;;5034329;28;20485;-66
2021/12/24 12:16:27;;;;;;;1.50;1.40;;;-4.90;99.90;;;;;;5034695;28;20033;-66
2021/12/24 12:19:21;;;;;;;1.50;1.35;;;-4.90;99.90;;;;;;5034610;28;20034;-65
2021/12/24 12:22:29;;;;;;;2.47;1.40;;;-4.90;99.90;;;;;;5034157;28;20029;-64
2021/12/24 12:24:58;;;;;;;2.42;1.50;;;-4.90;99.90;;;;;;5034544;28;20381;-64
2021/12/24 12:27:31;;;;;;;1.90;1.30;;;-4.90;99.90;;;;;;5034089;28;20485;-65
2021/12/24 12:29:57;;;;;;;1.70;1.50;;;-4.90;99.90;;;;;;5034342;28;20052;-65
2021/12/24 12:32:24;;;;;;;1.33;1.17;;;-4.90;99.90;;;;;;5034077;28;20119;-65
2021/12/24 12:34:59;;;;;;;4.78;1.40;;;-4.90;99.90;;;;;;5034287;28;20067;-65
2021/12/24 12:37:49;;;;;;;2.47;1.20;;;-4.90;99.90;;;;;;5034157;28;20025;-65
2021/12/24 12:40:17;;;;;;;3.80;1.40;;;-4.90;99.90;;;;;;5033512;28;20489;-65
2021/12/24 12:42:53;;;;;;;1.58;1.38;;;-5.00;99.90;;;;;;5033987;28;20025;-65
2021/12/24 12:45:22;;;;;;;1.55;1.40;;;-5.00;99.90;;;;;;5033624;28;20030;-65
2021/12/24 12:47:59;;;;;;;3.38;1.50;;;-4.70;99.90;;;;;;5034088;28;20064;-65
2021/12/24 12:50:25;;;;;;;1.55;1.45;;;-4.80;99.90;;;;;;5034182;28;20026;-65
2021/12/24 12:52:58;;;;;;;2.53;1.60;;;-4.90;99.90;;;;;;5033970;28;20392;-65
2021/12/24 12:55:36;;;;;;;3.05;1.58;;;-4.90;99.90;;;;;;5033797;28;20045;-65
2021/12/24 12:58:24;;;;;;;2.13;1.40;;;-5.00;99.90;;;;;;5033570;28;20075;-65
2021/12/24 13:01:10;;;;;;;8.10;2.17;;;-5.00;99.90;;;;;;5032183;28;20416;-66
2021/12/24 13:03:55;;;;;;;4.18;2.25;;;-4.70;99.90;;;;;;5033453;28;20025;-67
2021/12/24 13:06:21;;;;;;;4.22;1.70;;;-4.10;99.90;;;;;;5033749;28;20040;-65
2021/12/24 13:08:47;;;;;;;5.22;2.35;;;-4.30;99.90;;;;;;5032596;28;20033;-65
2021/12/24 13:11:16;;;;;;;3.33;1.85;;;-4.50;99.90;;;;;;5033387;28;20120;-65
2021/12/24 13:13:53;;;;;;;3.30;1.48;;;-4.70;99.90;;;;;;5033281;28;20033;-65
2021/12/24 13:16:42;;;;;;;2.40;1.70;;;-4.90;99.90;;;;;;5033385;28;20040;-65
2021/12/24 13:24:39;;;;;;;1.88;1.50;;;-4.90;99.90;;;;;;5032962;28;20450;-64
2021/12/24 13:27:05;;;;;;;4.57;1.58;;;-5.00;99.90;;;;;;5033101;28;20109;-64
2021/12/24 13:29:31;;;;;;;3.33;1.70;;;-5.10;99.90;;;;;;5033055;28;20100;-64
2021/12/24 13:31:59;;;;;;;3.10;1.35;;;-5.20;99.90;;;;;;5032860;28;20033;-64
2021/12/24 13:34:26;;;;;;;1.88;1.50;;;-5.30;99.90;;;;;;5031751;28;20119;-64
2021/12/24 13:36:52;;;;;;;3.92;1.70;;;-5.40;99.90;;;;;;5032799;28;20037;-64
2021/12/24 13:39:22;;;;;;;5.38;1.80;;;-5.40;99.90;;;;;;5033172;28;20074;-64
2021/12/24 13:41:58;;;;;;;1.65;1.55;;;-5.50;99.90;;;;;;5031311;28;20116;-64
2021/12/24 13:44:27;;;;;;;1.88;1.77;;;-5.60;99.90;;;;;;5032780;28;20460;-64
2021/12/24 13:47:06;;;;;;;1.80;1.70;;;-5.60;99.90;;;;;;5032306;28;20037;-64
2021/12/24 13:50:05;;;;;;;3.70;2.20;;;-5.50;99.90;;;;;;5032721;28;20393;-64
2021/12/24 13:55:22;;;;;;;5.68;2.58;;;-5.10;99.90;;;;;;5032622;28;20032;-64
2021/12/24 13:57:52;;;;;;;;;;;-5.10;99.90;;;;;;5032754;28;20053;-64
2021/12/24 14:00:18;;;;;;;4.65;2.03;;;-5.20;99.90;;;;;;5031196;28;19905;-64
2021/12/24 14:02:56;;;;;;;4.07;1.80;;;-5.30;99.90;;;;;;5032367;28;20043;-65
2021/12/24 14:05:22;;;;;;;2.75;1.83;;;-5.30;99.90;;;;;;5031249;28;20033;-65
2021/12/24 14:08:17;;;;;;;4.07;1.83;;;-5.30;99.90;;;;;;5032243;28;20033;-65
2021/12/24 14:10:45;;;;;;;1.70;1.60;;;-5.30;99.90;;;;;;5032220;28;20034;-65
2021/12/24 14:13:19;;;;;;;4.45;1.80;;;-5.30;99.90;;;;;;5032423;28;20040;-65
2021/12/24 14:23:32;;;;;;;1.52;1.40;;;-5.30;99.90;;;;;;5032445;28;20025;-65
2021/12/24 14:26:00;;;;;;;1.70;1.50;;;-5.30;99.90;;;;;;5032005;28;20026;-65
2021/12/24 14:28:26;;;;;;;4.13;1.55;;;-5.30;99.90;;;;;;5032072;28;20493;-65
2021/12/24 14:31:02;;;;;;;1.77;1.50;;;-5.40;99.90;;;;;;5031947;28;20060;-65
2021/12/24 14:33:33;;;;;;;1.83;1.60;;;-5.40;99.90;;;;;;5032090;28;20543;-65
2021/12/24 14:36:00;;;;;;;3.88;1.85;;;-5.40;99.90;;;;;;5031852;28;20561;-65
2021/12/24 14:38:26;;;;;;;6.10;1.75;;;-5.40;99.90;;;;;;5032049;28;20056;-65
2021/12/24 14:40:57;;;;;;;5.20;1.88;;;-5.40;99.90;;;;;;5032088;28;20083;-65
2021/12/24 14:43:23;;;;;;;3.60;1.60;;;-5.40;99.90;;;;;;5032053;28;20044;-65
2021/12/24 14:45:51;;;;;;;4.10;1.63;;;-5.40;99.90;;;;;;5031981;28;20428;-65
2021/12/24 14:48:25;;;;;;;3.40;1.70;;;-5.40;99.90;;;;;;5032092;28;20083;-65
2021/12/24 14:51:04;;;;;;;4.63;2.15;;;-5.40;99.90;;;;;;5031995;28;20022;-65
2021/12/24 14:53:33;;;;;;;5.25;1.80;;;-5.50;99.90;;;;;;5031907;28;20033;-65
2021/12/24 14:56:02;;;;;;;5.47;1.95;;;-5.40;99.90;;;;;;5031689;28;20060;-65
2021/12/24 14:58:40;;;;;;;3.20;1.50;;;-5.40;99.90;;;;;;5031729;28;20116;-64
2021/12/24 15:01:18;;;;;;;8.85;2.28;;;-5.40;99.90;;;;;;5031626;28;20049;-64
2021/12/24 15:03:46;;;;;;;6.05;1.90;;;-5.50;99.90;;;;;;5031929;28;20037;-64
2021/12/24 15:06:27;;;;;;;2.97;1.65;;;-5.40;99.90;;;;;;5031933;28;20021;-64
2021/12/24 15:08:55;;;;;;;2.13;1.83;;;-5.50;99.90;;;;;;5031617;28;20480;-64
2021/12/24 15:11:23;;;;;;;6.82;1.80;;;-5.50;99.90;;;;;;5031513;28;20033;-65
2021/12/24 15:13:54;;;;;;;3.65;1.83;;;-5.50;99.90;;;;;;5031567;28;20393;-65
2021/12/24 15:16:22;;;;;;;4.45;2.33;;;-5.50;99.90;;;;;;5031820;28;20029;-65
2021/12/24 15:18:50;;;;;;;8.77;2.75;;;-5.50;99.90;;;;;;5031521;28;20083;-64
2021/12/24 15:21:21;;;;;;;7.47;2.75;;;-5.50;99.90;;;;;;5031552;28;20021;-64